sensor_id;sensor_type;location;lat;lon;timestamp;P1;durP1;ratioP1;P2;durP2;ratioP2
9522;SDS011;63165;43.016;25.784;2023-12-29T00:02:14;108.57;;;27.58;;
9522;SDS011;63165;43.016;25.784;2023-12-29T00:04:41;118.78;;;29.92;;
9522;SDS011;63165;43.016;25.784;2023-12-29T00:07:08;152.57;;;40.13;;
9522;SDS011;63165;43.016;25.784;2023-12-29T00:09:36;108.50;;;29.88;;
9522;SDS011;63165;43.016;25.784;2023-12-29T00:12:06;81.43;;;23.48;;
9522;SDS011;63165;43.016;25.784;2023-12-29T00:14:33;82.68;;;23.27;;
9522;SDS011;63165;43.016;25.784;2023-12-29T00:17:03;62.72;;;18.85;;
9522;SDS011;63165;43.016;25.784;2023-12-29T00:19:32;76.40;;;20.45;;
9522;SDS011;63165;43.016;25.784;2023-12-29T00:21:59;70.88;;;17.58;;
9522;SDS011;63165;43.016;25.784;2023-12-29T00:24:28;54.25;;;17.58;;
9522;SDS011;63165;43.016;25.784;2023-12-29T00:26:56;72.63;;;19.80;;
9522;SDS011;63165;43.016;25.784;2023-12-29T00:29:24;115.13;;;28.30;;
9522;SDS011;63165;43.016;25.784;2023-12-29T00:31:53;95.43;;;26.17;;
9522;SDS011;63165;43.016;25.784;2023-12-29T00:34:20;58.22;;;17.27;;
9522;SDS011;63165;43.016;25.784;2023-12-29T00:36:49;51.95;;;16.23;;
9522;SDS011;63165;43.016;25.784;2023-12-29T00:39:16;51.67;;;13.63;;
9522;SDS011;63165;43.016;25.784;2023-12-29T00:41:44;36.58;;;12.00;;
9522;SDS011;63165;43.016;25.784;2023-12-29T00:44:11;36.70;;;11.75;;
9522;SDS011;63165;43.016;25.784;2023-12-29T00:46:38;34.58;;;11.88;;
9522;SDS011;63165;43.016;25.784;2023-12-29T00:49:05;32.15;;;10.70;;
9522;SDS011;63165;43.016;25.784;2023-12-29T00:51:32;32.33;;;10.18;;
9522;SDS011;63165;43.016;25.784;2023-12-29T00:54:01;25.30;;;9.05;;
9522;SDS011;63165;43.016;25.784;2023-12-29T00:56:28;33.75;;;10.07;;
9522;SDS011;63165;43.016;25.784;2023-12-29T00:58:55;30.08;;;9.95;;
9522;SDS011;63165;43.016;25.784;2023-12-29T01:01:23;248.05;;;60.03;;
9522;SDS011;63165;43.016;25.784;2023-12-29T01:03:50;76.30;;;20.88;;
9522;SDS011;63165;43.016;25.784;2023-12-29T01:06:19;177.25;;;48.95;;
9522;SDS011;63165;43.016;25.784;2023-12-29T01:08:47;131.60;;;34.78;;
9522;SDS011;63165;43.016;25.784;2023-12-29T01:11:15;68.60;;;20.88;;
9522;SDS011;63165;43.016;25.784;2023-12-29T01:13:42;47.63;;;15.55;;
9522;SDS011;63165;43.016;25.784;2023-12-29T01:16:09;42.95;;;14.65;;
9522;SDS011;63165;43.016;25.784;2023-12-29T01:18:37;50.40;;;13.05;;
9522;SDS011;63165;43.016;25.784;2023-12-29T01:21:04;42.50;;;13.23;;
9522;SDS011;63165;43.016;25.784;2023-12-29T01:23:31;50.67;;;17.10;;
9522;SDS011;63165;43.016;25.784;2023-12-29T01:25:58;40.72;;;15.05;;
9522;SDS011;63165;43.016;25.784;2023-12-29T01:28:27;47.40;;;17.55;;
9522;SDS011;63165;43.016;25.784;2023-12-29T01:30:54;46.00;;;15.77;;
9522;SDS011;63165;43.016;25.784;2023-12-29T01:33:21;40.95;;;15.02;;
9522;SDS011;63165;43.016;25.784;2023-12-29T01:35:48;50.03;;;14.80;;
9522;SDS011;63165;43.016;25.784;2023-12-29T01:38:15;37.83;;;11.55;;
9522;SDS011;63165;43.016;25.784;2023-12-29T01:40:43;37.25;;;11.30;;
9522;SDS011;63165;43.016;25.784;2023-12-29T01:43:10;37.85;;;10.75;;
9522;SDS011;63165;43.016;25.784;2023-12-29T01:45:39;36.33;;;10.23;;
9522;SDS011;63165;43.016;25.784;2023-12-29T01:48:06;31.88;;;11.30;;
9522;SDS011;63165;43.016;25.784;2023-12-29T01:50:35;32.22;;;11.20;;
9522;SDS011;63165;43.016;25.784;2023-12-29T01:53:02;36.00;;;12.63;;
9522;SDS011;63165;43.016;25.784;2023-12-29T01:55:32;45.10;;;13.57;;
9522;SDS011;63165;43.016;25.784;2023-12-29T01:57:59;32.25;;;12.52;;
9522;SDS011;63165;43.016;25.784;2023-12-29T02:00:28;39.20;;;13.23;;
9522;SDS011;63165;43.016;25.784;2023-12-29T02:02:58;38.83;;;13.00;;
9522;SDS011;63165;43.016;25.784;2023-12-29T02:05:25;31.67;;;11.20;;
9522;SDS011;63165;43.016;25.784;2023-12-29T02:07:56;31.60;;;10.18;;
9522;SDS011;63165;43.016;25.784;2023-12-29T02:10:23;27.20;;;9.88;;
9522;SDS011;63165;43.016;25.784;2023-12-29T02:12:50;27.25;;;9.15;;
9522;SDS011;63165;43.016;25.784;2023-12-29T02:15:22;61.53;;;19.80;;
9522;SDS011;63165;43.016;25.784;2023-12-29T02:17:51;73.55;;;21.48;;
9522;SDS011;63165;43.016;25.784;2023-12-29T02:20:24;75.10;;;22.60;;
9522;SDS011;63165;43.016;25.784;2023-12-29T02:22:52;68.60;;;18.35;;
9522;SDS011;63165;43.016;25.784;2023-12-29T02:25:21;68.28;;;18.55;;
9522;SDS011;63165;43.016;25.784;2023-12-29T02:27:49;47.92;;;14.27;;
9522;SDS011;63165;43.016;25.784;2023-12-29T02:30:21;52.83;;;15.30;;
9522;SDS011;63165;43.016;25.784;2023-12-29T02:32:54;37.97;;;10.60;;
9522;SDS011;63165;43.016;25.784;2023-12-29T02:35:27;23.95;;;8.90;;
9522;SDS011;63165;43.016;25.784;2023-12-29T02:37:55;23.55;;;8.90;;
9522;SDS011;63165;43.016;25.784;2023-12-29T02:40:25;40.40;;;13.13;;
9522;SDS011;63165;43.016;25.784;2023-12-29T02:42:52;81.45;;;21.95;;
9522;SDS011;63165;43.016;25.784;2023-12-29T02:45:19;73.25;;;20.25;;
9522;SDS011;63165;43.016;25.784;2023-12-29T02:47:46;44.75;;;14.48;;
9522;SDS011;63165;43.016;25.784;2023-12-29T02:50:14;36.38;;;12.68;;
9522;SDS011;63165;43.016;25.784;2023-12-29T02:52:42;40.08;;;13.25;;
9522;SDS011;63165;43.016;25.784;2023-12-29T02:55:09;44.95;;;12.70;;
9522;SDS011;63165;43.016;25.784;2023-12-29T02:57:37;42.33;;;12.77;;
9522;SDS011;63165;43.016;25.784;2023-12-29T03:00:05;25.58;;;8.77;;
9522;SDS011;63165;43.016;25.784;2023-12-29T03:02:33;24.33;;;8.82;;
9522;SDS011;63165;43.016;25.784;2023-12-29T03:05:01;31.13;;;9.30;;
9522;SDS011;63165;43.016;25.784;2023-12-29T03:07:28;29.77;;;9.52;;
9522;SDS011;63165;43.016;25.784;2023-12-29T03:09:55;27.63;;;9.00;;
9522;SDS011;63165;43.016;25.784;2023-12-29T03:12:22;32.08;;;9.40;;
9522;SDS011;63165;43.016;25.784;2023-12-29T03:14:51;42.92;;;12.60;;
9522;SDS011;63165;43.016;25.784;2023-12-29T03:17:18;35.10;;;12.80;;
9522;SDS011;63165;43.016;25.784;2023-12-29T03:19:45;50.15;;;13.70;;
9522;SDS011;63165;43.016;25.784;2023-12-29T03:22:12;70.57;;;19.13;;
9522;SDS011;63165;43.016;25.784;2023-12-29T03:24:40;30.80;;;10.07;;
9522;SDS011;63165;43.016;25.784;2023-12-29T03:27:07;26.83;;;8.15;;
9522;SDS011;63165;43.016;25.784;2023-12-29T03:29:35;24.73;;;9.55;;
9522;SDS011;63165;43.016;25.784;2023-12-29T03:32:04;23.13;;;8.70;;
9522;SDS011;63165;43.016;25.784;2023-12-29T03:34:32;26.40;;;8.55;;
9522;SDS011;63165;43.016;25.784;2023-12-29T03:36:59;30.45;;;10.35;;
9522;SDS011;63165;43.016;25.784;2023-12-29T03:39:26;103.65;;;25.58;;
9522;SDS011;63165;43.016;25.784;2023-12-29T03:41:55;62.10;;;17.58;;
9522;SDS011;63165;43.016;25.784;2023-12-29T03:44:22;143.52;;;30.75;;
9522;SDS011;63165;43.016;25.784;2023-12-29T03:46:49;90.78;;;21.92;;
9522;SDS011;63165;43.016;25.784;2023-12-29T03:49:18;203.90;;;46.10;;
9522;SDS011;63165;43.016;25.784;2023-12-29T03:51:45;82.55;;;24.27;;
9522;SDS011;63165;43.016;25.784;2023-12-29T03:54:13;89.53;;;24.15;;
9522;SDS011;63165;43.016;25.784;2023-12-29T03:56:40;54.78;;;16.75;;
9522;SDS011;63165;43.016;25.784;2023-12-29T03:59:07;58.53;;;16.40;;
9522;SDS011;63165;43.016;25.784;2023-12-29T04:01:34;50.03;;;14.00;;
9522;SDS011;63165;43.016;25.784;2023-12-29T04:04:01;44.08;;;14.18;;
9522;SDS011;63165;43.016;25.784;2023-12-29T04:06:30;35.92;;;13.18;;
9522;SDS011;63165;43.016;25.784;2023-12-29T04:08:57;48.95;;;14.88;;
9522;SDS011;63165;43.016;25.784;2023-12-29T04:11:24;56.42;;;16.88;;
9522;SDS011;63165;43.016;25.784;2023-12-29T04:13:51;97.18;;;24.65;;
9522;SDS011;63165;43.016;25.784;2023-12-29T04:16:19;174.05;;;38.38;;
9522;SDS011;63165;43.016;25.784;2023-12-29T04:18:46;124.88;;;32.03;;
9522;SDS011;63165;43.016;25.784;2023-12-29T04:21:13;97.75;;;24.42;;
9522;SDS011;63165;43.016;25.784;2023-12-29T04:23:42;43.78;;;13.93;;
9522;SDS011;63165;43.016;25.784;2023-12-29T04:26:09;34.25;;;11.02;;
9522;SDS011;63165;43.016;25.784;2023-12-29T04:28:37;32.22;;;10.10;;
9522;SDS011;63165;43.016;25.784;2023-12-29T04:31:04;29.80;;;9.00;;
9522;SDS011;63165;43.016;25.784;2023-12-29T04:33:31;25.02;;;8.82;;
9522;SDS011;63165;43.016;25.784;2023-12-29T04:35:58;19.83;;;6.03;;
9522;SDS011;63165;43.016;25.784;2023-12-29T04:38:25;15.45;;;5.78;;
9522;SDS011;63165;43.016;25.784;2023-12-29T04:40:54;15.98;;;6.40;;
9522;SDS011;63165;43.016;25.784;2023-12-29T04:43:21;24.13;;;8.50;;
9522;SDS011;63165;43.016;25.784;2023-12-29T04:45:48;19.70;;;6.47;;
9522;SDS011;63165;43.016;25.784;2023-12-29T04:48:15;45.53;;;14.48;;
9522;SDS011;63165;43.016;25.784;2023-12-29T04:50:43;92.18;;;21.92;;
9522;SDS011;63165;43.016;25.784;2023-12-29T04:53:10;290.13;;;59.50;;
9522;SDS011;63165;43.016;25.784;2023-12-29T04:55:37;143.13;;;33.75;;
9522;SDS011;63165;43.016;25.784;2023-12-29T04:58:05;53.20;;;13.90;;
9522;SDS011;63165;43.016;25.784;2023-12-29T05:00:33;41.55;;;11.18;;
9522;SDS011;63165;43.016;25.784;2023-12-29T05:03:00;41.15;;;11.63;;
9522;SDS011;63165;43.016;25.784;2023-12-29T05:05:27;33.78;;;9.98;;
9522;SDS011;63165;43.016;25.784;2023-12-29T05:07:54;26.42;;;8.30;;
9522;SDS011;63165;43.016;25.784;2023-12-29T05:10:21;23.70;;;8.65;;
9522;SDS011;63165;43.016;25.784;2023-12-29T05:12:48;25.63;;;7.30;;
9522;SDS011;63165;43.016;25.784;2023-12-29T05:15:17;19.25;;;8.10;;
9522;SDS011;63165;43.016;25.784;2023-12-29T05:17:44;37.83;;;10.63;;
9522;SDS011;63165;43.016;25.784;2023-12-29T05:20:11;44.70;;;12.85;;
9522;SDS011;63165;43.016;25.784;2023-12-29T05:22:38;35.72;;;12.20;;
9522;SDS011;63165;43.016;25.784;2023-12-29T05:25:06;33.40;;;11.43;;
9522;SDS011;63165;43.016;25.784;2023-12-29T05:27:34;36.67;;;11.40;;
9522;SDS011;63165;43.016;25.784;2023-12-29T05:30:01;29.23;;;9.60;;
9522;SDS011;63165;43.016;25.784;2023-12-29T05:32:30;30.73;;;8.73;;
9522;SDS011;63165;43.016;25.784;2023-12-29T05:34:57;23.65;;;8.30;;
9522;SDS011;63165;43.016;25.784;2023-12-29T05:37:24;24.90;;;8.90;;
9522;SDS011;63165;43.016;25.784;2023-12-29T05:39:51;27.63;;;8.20;;
9522;SDS011;63165;43.016;25.784;2023-12-29T05:42:18;24.75;;;8.35;;
9522;SDS011;63165;43.016;25.784;2023-12-29T05:44:45;23.65;;;8.30;;
9522;SDS011;63165;43.016;25.784;2023-12-29T05:47:13;24.65;;;8.50;;
9522;SDS011;63165;43.016;25.784;2023-12-29T05:49:41;27.70;;;10.05;;
9522;SDS011;63165;43.016;25.784;2023-12-29T05:52:08;26.05;;;9.73;;
9522;SDS011;63165;43.016;25.784;2023-12-29T05:54:36;27.08;;;9.10;;
9522;SDS011;63165;43.016;25.784;2023-12-29T05:57:03;25.08;;;8.85;;
9522;SDS011;63165;43.016;25.784;2023-12-29T05:59:30;20.33;;;7.38;;
9522;SDS011;63165;43.016;25.784;2023-12-29T06:01:57;55.28;;;9.18;;
9522;SDS011;63165;43.016;25.784;2023-12-29T06:04:24;30.05;;;8.82;;
9522;SDS011;63165;43.016;25.784;2023-12-29T06:06:53;19.85;;;8.15;;
9522;SDS011;63165;43.016;25.784;2023-12-29T06:09:20;18.63;;;7.32;;
9522;SDS011;63165;43.016;25.784;2023-12-29T06:11:47;21.33;;;8.07;;
9522;SDS011;63165;43.016;25.784;2023-12-29T06:14:14;34.95;;;11.40;;
9522;SDS011;63165;43.016;25.784;2023-12-29T06:16:42;123.50;;;31.73;;
9522;SDS011;63165;43.016;25.784;2023-12-29T06:19:09;58.85;;;18.23;;
9522;SDS011;63165;43.016;25.784;2023-12-29T06:21:40;62.80;;;20.45;;
9522;SDS011;63165;43.016;25.784;2023-12-29T06:24:09;66.20;;;18.88;;
9522;SDS011;63165;43.016;25.784;2023-12-29T06:26:37;65.47;;;20.33;;
9522;SDS011;63165;43.016;25.784;2023-12-29T06:29:08;82.90;;;22.05;;
9522;SDS011;63165;43.016;25.784;2023-12-29T06:31:35;83.45;;;24.13;;
9522;SDS011;63165;43.016;25.784;2023-12-29T06:37:24;81.70;;;22.77;;
9522;SDS011;63165;43.016;25.784;2023-12-29T06:43:12;63.80;;;19.50;;
9522;SDS011;63165;43.016;25.784;2023-12-29T06:45:41;73.53;;;22.67;;
9522;SDS011;63165;43.016;25.784;2023-12-29T06:48:09;81.32;;;25.33;;
9522;SDS011;63165;43.016;25.784;2023-12-29T06:50:37;55.25;;;18.45;;
9522;SDS011;63165;43.016;25.784;2023-12-29T06:53:04;58.55;;;18.27;;
9522;SDS011;63165;43.016;25.784;2023-12-29T06:55:31;53.10;;;18.52;;
9522;SDS011;63165;43.016;25.784;2023-12-29T06:57:58;60.15;;;20.60;;
9522;SDS011;63165;43.016;25.784;2023-12-29T07:00:27;76.05;;;21.67;;
9522;SDS011;63165;43.016;25.784;2023-12-29T07:02:54;78.57;;;24.25;;
9522;SDS011;63165;43.016;25.784;2023-12-29T07:05:22;84.30;;;26.73;;
9522;SDS011;63165;43.016;25.784;2023-12-29T07:07:50;84.57;;;24.20;;
9522;SDS011;63165;43.016;25.784;2023-12-29T07:10:17;132.63;;;36.08;;
9522;SDS011;63165;43.016;25.784;2023-12-29T07:12:44;231.10;;;56.90;;
9522;SDS011;63165;43.016;25.784;2023-12-29T07:15:12;259.23;;;64.60;;
9522;SDS011;63165;43.016;25.784;2023-12-29T07:17:41;319.40;;;82.38;;
9522;SDS011;63165;43.016;25.784;2023-12-29T07:20:08;284.65;;;70.50;;
9522;SDS011;63165;43.016;25.784;2023-12-29T07:22:36;288.75;;;73.10;;
9522;SDS011;63165;43.016;25.784;2023-12-29T07:25:03;301.73;;;76.80;;
9522;SDS011;63165;43.016;25.784;2023-12-29T07:27:31;291.65;;;72.95;;
9522;SDS011;63165;43.016;25.784;2023-12-29T07:29:58;272.90;;;71.90;;
9522;SDS011;63165;43.016;25.784;2023-12-29T07:32:25;243.90;;;64.45;;
9522;SDS011;63165;43.016;25.784;2023-12-29T07:34:54;191.13;;;56.42;;
9522;SDS011;63165;43.016;25.784;2023-12-29T07:37:21;183.43;;;49.42;;
9522;SDS011;63165;43.016;25.784;2023-12-29T07:39:48;159.45;;;40.90;;
9522;SDS011;63165;43.016;25.784;2023-12-29T07:42:15;154.30;;;42.35;;
9522;SDS011;63165;43.016;25.784;2023-12-29T07:44:43;131.07;;;37.78;;
9522;SDS011;63165;43.016;25.784;2023-12-29T07:47:10;104.93;;;30.75;;
9522;SDS011;63165;43.016;25.784;2023-12-29T07:49:37;101.65;;;29.45;;
9522;SDS011;63165;43.016;25.784;2023-12-29T07:52:06;100.65;;;26.50;;
9522;SDS011;63165;43.016;25.784;2023-12-29T07:54:34;87.20;;;25.10;;
9522;SDS011;63165;43.016;25.784;2023-12-29T07:57:01;81.13;;;26.00;;
9522;SDS011;63165;43.016;25.784;2023-12-29T07:59:28;80.68;;;24.33;;
9522;SDS011;63165;43.016;25.784;2023-12-29T08:01:55;69.43;;;22.33;;
9522;SDS011;63165;43.016;25.784;2023-12-29T08:04:24;67.20;;;21.77;;
9522;SDS011;63165;43.016;25.784;2023-12-29T08:06:51;51.00;;;18.65;;
9522;SDS011;63165;43.016;25.784;2023-12-29T08:09:19;55.95;;;17.52;;
9522;SDS011;63165;43.016;25.784;2023-12-29T08:11:47;48.00;;;15.80;;
9522;SDS011;63165;43.016;25.784;2023-12-29T08:14:14;40.10;;;13.57;;
9522;SDS011;63165;43.016;25.784;2023-12-29T08:16:41;38.38;;;14.20;;
9522;SDS011;63165;43.016;25.784;2023-12-29T08:19:08;43.90;;;15.23;;
9522;SDS011;63165;43.016;25.784;2023-12-29T08:21:35;48.92;;;15.40;;
9522;SDS011;63165;43.016;25.784;2023-12-29T08:24:03;44.85;;;14.10;;
9522;SDS011;63165;43.016;25.784;2023-12-29T08:26:32;36.60;;;13.75;;
9522;SDS011;63165;43.016;25.784;2023-12-29T08:28:59;46.67;;;14.38;;
9522;SDS011;63165;43.016;25.784;2023-12-29T08:31:26;33.20;;;13.57;;
9522;SDS011;63165;43.016;25.784;2023-12-29T08:33:54;39.88;;;14.07;;
9522;SDS011;63165;43.016;25.784;2023-12-29T08:36:21;53.03;;;16.40;;
9522;SDS011;63165;43.016;25.784;2023-12-29T08:38:48;46.00;;;14.93;;
9522;SDS011;63165;43.016;25.784;2023-12-29T08:41:18;45.60;;;14.48;;
9522;SDS011;63165;43.016;25.784;2023-12-29T08:43:47;49.45;;;15.63;;
9522;SDS011;63165;43.016;25.784;2023-12-29T08:46:14;37.33;;;11.50;;
9522;SDS011;63165;43.016;25.784;2023-12-29T08:48:41;46.75;;;12.88;;
9522;SDS011;63165;43.016;25.784;2023-12-29T08:51:08;39.42;;;13.98;;
9522;SDS011;63165;43.016;25.784;2023-12-29T08:53:35;76.45;;;24.90;;
9522;SDS011;63165;43.016;25.784;2023-12-29T08:56:02;50.78;;;16.67;;
9522;SDS011;63165;43.016;25.784;2023-12-29T08:58:30;44.60;;;17.05;;
9522;SDS011;63165;43.016;25.784;2023-12-29T09:01:00;48.80;;;16.27;;
9522;SDS011;63165;43.016;25.784;2023-12-29T09:03:27;84.30;;;25.10;;
9522;SDS011;63165;43.016;25.784;2023-12-29T09:05:54;60.60;;;20.30;;
9522;SDS011;63165;43.016;25.784;2023-12-29T09:08:22;61.00;;;20.80;;
9522;SDS011;63165;43.016;25.784;2023-12-29T09:10:49;57.20;;;19.73;;
9522;SDS011;63165;43.016;25.784;2023-12-29T09:13:16;46.72;;;16.45;;
9522;SDS011;63165;43.016;25.784;2023-12-29T09:15:43;32.50;;;11.43;;
9522;SDS011;63165;43.016;25.784;2023-12-29T09:18:12;31.83;;;10.98;;
9522;SDS011;63165;43.016;25.784;2023-12-29T09:20:39;29.42;;;9.68;;
9522;SDS011;63165;43.016;25.784;2023-12-29T09:23:06;31.42;;;9.68;;
9522;SDS011;63165;43.016;25.784;2023-12-29T09:25:34;29.55;;;9.07;;
9522;SDS011;63165;43.016;25.784;2023-12-29T09:28:01;46.05;;;13.38;;
9522;SDS011;63165;43.016;25.784;2023-12-29T09:30:28;27.73;;;9.55;;
9522;SDS011;63165;43.016;25.784;2023-12-29T09:32:55;55.05;;;15.40;;
9522;SDS011;63165;43.016;25.784;2023-12-29T09:35:24;45.40;;;13.32;;
9522;SDS011;63165;43.016;25.784;2023-12-29T09:37:51;59.97;;;15.65;;
9522;SDS011;63165;43.016;25.784;2023-12-29T09:40:18;29.55;;;10.05;;
9522;SDS011;63165;43.016;25.784;2023-12-29T09:42:46;18.60;;;6.85;;
9522;SDS011;63165;43.016;25.784;2023-12-29T09:45:14;23.48;;;7.28;;
9522;SDS011;63165;43.016;25.784;2023-12-29T09:47:48;18.15;;;6.38;;
9522;SDS011;63165;43.016;25.784;2023-12-29T09:50:18;18.33;;;6.68;;
9522;SDS011;63165;43.016;25.784;2023-12-29T09:52:48;15.88;;;5.55;;
9522;SDS011;63165;43.016;25.784;2023-12-29T09:55:16;39.53;;;12.13;;
9522;SDS011;63165;43.016;25.784;2023-12-29T09:57:44;14.85;;;5.82;;
9522;SDS011;63165;43.016;25.784;2023-12-29T10:00:13;26.70;;;7.97;;
9522;SDS011;63165;43.016;25.784;2023-12-29T10:02:42;22.67;;;9.20;;
9522;SDS011;63165;43.016;25.784;2023-12-29T10:05:10;18.67;;;6.95;;
9522;SDS011;63165;43.016;25.784;2023-12-29T10:07:38;13.98;;;6.22;;
9522;SDS011;63165;43.016;25.784;2023-12-29T10:10:07;19.88;;;8.40;;
9522;SDS011;63165;43.016;25.784;2023-12-29T10:12:40;20.05;;;7.20;;
9522;SDS011;63165;43.016;25.784;2023-12-29T10:15:11;16.40;;;7.18;;
9522;SDS011;63165;43.016;25.784;2023-12-29T10:17:45;18.13;;;6.95;;
9522;SDS011;63165;43.016;25.784;2023-12-29T10:20:24;16.60;;;7.65;;
9522;SDS011;63165;43.016;25.784;2023-12-29T10:23:03;19.80;;;7.40;;
9522;SDS011;63165;43.016;25.784;2023-12-29T10:25:35;21.58;;;8.60;;
9522;SDS011;63165;43.016;25.784;2023-12-29T10:28:03;37.63;;;12.68;;
9522;SDS011;63165;43.016;25.784;2023-12-29T10:30:32;138.23;;;37.35;;
9522;SDS011;63165;43.016;25.784;2023-12-29T10:32:58;35.67;;;11.45;;
9522;SDS011;63165;43.016;25.784;2023-12-29T10:35:26;118.18;;;32.30;;
9522;SDS011;63165;43.016;25.784;2023-12-29T10:37:53;56.22;;;16.50;;
9522;SDS011;63165;43.016;25.784;2023-12-29T10:40:20;54.63;;;18.10;;
9522;SDS011;63165;43.016;25.784;2023-12-29T10:42:55;23.05;;;8.93;;
9522;SDS011;63165;43.016;25.784;2023-12-29T10:45:22;16.00;;;5.90;;
9522;SDS011;63165;43.016;25.784;2023-12-29T10:47:50;13.63;;;5.10;;
9522;SDS011;63165;43.016;25.784;2023-12-29T10:50:18;16.13;;;6.35;;
9522;SDS011;63165;43.016;25.784;2023-12-29T10:52:45;15.52;;;5.65;;
9522;SDS011;63165;43.016;25.784;2023-12-29T10:55:12;13.43;;;4.78;;
9522;SDS011;63165;43.016;25.784;2023-12-29T10:57:39;11.68;;;5.05;;
9522;SDS011;63165;43.016;25.784;2023-12-29T11:00:09;27.42;;;9.60;;
9522;SDS011;63165;43.016;25.784;2023-12-29T11:02:38;17.35;;;4.93;;
9522;SDS011;63165;43.016;25.784;2023-12-29T11:05:07;16.50;;;6.72;;
9522;SDS011;63165;43.016;25.784;2023-12-29T11:07:36;23.65;;;10.25;;
9522;SDS011;63165;43.016;25.784;2023-12-29T11:10:05;13.15;;;5.30;;
9522;SDS011;63165;43.016;25.784;2023-12-29T11:12:34;12.50;;;5.03;;
9522;SDS011;63165;43.016;25.784;2023-12-29T11:15:02;11.02;;;4.53;;
9522;SDS011;63165;43.016;25.784;2023-12-29T11:17:33;13.77;;;4.78;;
9522;SDS011;63165;43.016;25.784;2023-12-29T11:20:01;14.48;;;4.75;;
9522;SDS011;63165;43.016;25.784;2023-12-29T11:22:30;17.73;;;5.28;;
9522;SDS011;63165;43.016;25.784;2023-12-29T11:24:58;13.70;;;5.70;;
9522;SDS011;63165;43.016;25.784;2023-12-29T11:27:27;15.40;;;5.40;;
9522;SDS011;63165;43.016;25.784;2023-12-29T11:29:56;16.13;;;5.15;;
9522;SDS011;63165;43.016;25.784;2023-12-29T11:32:25;14.55;;;5.25;;
9522;SDS011;63165;43.016;25.784;2023-12-29T11:35:03;15.43;;;4.88;;
9522;SDS011;63165;43.016;25.784;2023-12-29T11:37:43;14.68;;;5.38;;
9522;SDS011;63165;43.016;25.784;2023-12-29T11:40:30;20.85;;;6.68;;
9522;SDS011;63165;43.016;25.784;2023-12-29T11:43:01;14.07;;;6.13;;
9522;SDS011;63165;43.016;25.784;2023-12-29T11:45:33;16.15;;;5.53;;
9522;SDS011;63165;43.016;25.784;2023-12-29T11:48:02;17.70;;;6.22;;
9522;SDS011;63165;43.016;25.784;2023-12-29T11:50:31;14.93;;;5.05;;
9522;SDS011;63165;43.016;25.784;2023-12-29T11:52:59;14.63;;;5.65;;
9522;SDS011;63165;43.016;25.784;2023-12-29T11:55:30;12.32;;;5.40;;
9522;SDS011;63165;43.016;25.784;2023-12-29T12:00:42;17.38;;;5.97;;
9522;SDS011;63165;43.016;25.784;2023-12-29T12:03:13;14.27;;;5.53;;
9522;SDS011;63165;43.016;25.784;2023-12-29T12:05:47;14.77;;;5.95;;
9522;SDS011;63165;43.016;25.784;2023-12-29T12:08:27;16.33;;;5.82;;
9522;SDS011;63165;43.016;25.784;2023-12-29T12:10:56;19.35;;;5.47;;
9522;SDS011;63165;43.016;25.784;2023-12-29T12:13:44;16.23;;;6.53;;
9522;SDS011;63165;43.016;25.784;2023-12-29T12:19:16;12.95;;;5.18;;
9522;SDS011;63165;43.016;25.784;2023-12-29T12:21:47;15.30;;;5.15;;
9522;SDS011;63165;43.016;25.784;2023-12-29T12:24:15;18.15;;;5.65;;
9522;SDS011;63165;43.016;25.784;2023-12-29T12:26:45;13.95;;;5.35;;
9522;SDS011;63165;43.016;25.784;2023-12-29T12:29:13;16.02;;;5.28;;
9522;SDS011;63165;43.016;25.784;2023-12-29T12:31:53;12.35;;;4.57;;
9522;SDS011;63165;43.016;25.784;2023-12-29T12:34:22;10.43;;;4.53;;
9522;SDS011;63165;43.016;25.784;2023-12-29T12:36:51;17.45;;;5.40;;
9522;SDS011;63165;43.016;25.784;2023-12-29T12:39:21;20.10;;;6.82;;
9522;SDS011;63165;43.016;25.784;2023-12-29T12:41:49;15.20;;;4.88;;
9522;SDS011;63165;43.016;25.784;2023-12-29T12:44:17;21.73;;;4.63;;
9522;SDS011;63165;43.016;25.784;2023-12-29T12:46:48;12.50;;;4.50;;
9522;SDS011;63165;43.016;25.784;2023-12-29T12:49:17;14.25;;;4.90;;
9522;SDS011;63165;43.016;25.784;2023-12-29T12:51:46;12.70;;;4.53;;
9522;SDS011;63165;43.016;25.784;2023-12-29T12:54:18;10.60;;;4.20;;
9522;SDS011;63165;43.016;25.784;2023-12-29T12:56:48;15.27;;;5.15;;
9522;SDS011;63165;43.016;25.784;2023-12-29T12:59:16;14.45;;;4.20;;
9522;SDS011;63165;43.016;25.784;2023-12-29T13:01:45;15.93;;;6.32;;
9522;SDS011;63165;43.016;25.784;2023-12-29T13:04:16;10.35;;;4.43;;
9522;SDS011;63165;43.016;25.784;2023-12-29T13:06:50;13.02;;;4.53;;
9522;SDS011;63165;43.016;25.784;2023-12-29T13:09:20;16.90;;;4.57;;
9522;SDS011;63165;43.016;25.784;2023-12-29T13:11:48;19.08;;;5.30;;
9522;SDS011;63165;43.016;25.784;2023-12-29T13:14:19;15.80;;;6.05;;
9522;SDS011;63165;43.016;25.784;2023-12-29T13:16:49;17.95;;;5.25;;
9522;SDS011;63165;43.016;25.784;2023-12-29T13:19:23;13.57;;;4.63;;
9522;SDS011;63165;43.016;25.784;2023-12-29T13:21:55;9.07;;;4.13;;
9522;SDS011;63165;43.016;25.784;2023-12-29T13:24:25;14.02;;;4.90;;
9522;SDS011;63165;43.016;25.784;2023-12-29T13:26:54;9.45;;;4.28;;
9522;SDS011;63165;43.016;25.784;2023-12-29T13:29:24;11.20;;;4.30;;
9522;SDS011;63165;43.016;25.784;2023-12-29T13:31:58;8.38;;;3.85;;
9522;SDS011;63165;43.016;25.784;2023-12-29T13:34:29;12.25;;;4.70;;
9522;SDS011;63165;43.016;25.784;2023-12-29T13:37:05;12.30;;;4.45;;
9522;SDS011;63165;43.016;25.784;2023-12-29T13:39:44;9.10;;;3.80;;
9522;SDS011;63165;43.016;25.784;2023-12-29T13:42:18;17.17;;;4.43;;
9522;SDS011;63165;43.016;25.784;2023-12-29T13:44:48;15.55;;;5.40;;
9522;SDS011;63165;43.016;25.784;2023-12-29T13:47:18;18.38;;;4.22;;
9522;SDS011;63165;43.016;25.784;2023-12-29T13:49:46;34.97;;;6.03;;
9522;SDS011;63165;43.016;25.784;2023-12-29T13:52:14;18.98;;;5.20;;
9522;SDS011;63165;43.016;25.784;2023-12-29T13:54:45;21.27;;;7.20;;
9522;SDS011;63165;43.016;25.784;2023-12-29T13:57:12;20.10;;;5.63;;
9522;SDS011;63165;43.016;25.784;2023-12-29T13:59:39;16.40;;;5.85;;
9522;SDS011;63165;43.016;25.784;2023-12-29T14:02:19;14.70;;;5.70;;
9522;SDS011;63165;43.016;25.784;2023-12-29T14:05:06;16.08;;;5.95;;
9522;SDS011;63165;43.016;25.784;2023-12-29T14:07:38;27.77;;;8.07;;
9522;SDS011;63165;43.016;25.784;2023-12-29T14:10:14;19.88;;;8.15;;
9522;SDS011;63165;43.016;25.784;2023-12-29T14:12:41;22.05;;;8.75;;
9522;SDS011;63165;43.016;25.784;2023-12-29T14:15:08;23.40;;;8.52;;
9522;SDS011;63165;43.016;25.784;2023-12-29T14:17:36;19.25;;;8.07;;
9522;SDS011;63165;43.016;25.784;2023-12-29T14:20:05;18.85;;;8.65;;
9522;SDS011;63165;43.016;25.784;2023-12-29T14:22:33;23.45;;;8.45;;
9522;SDS011;63165;43.016;25.784;2023-12-29T14:25:01;19.65;;;8.20;;
9522;SDS011;63165;43.016;25.784;2023-12-29T14:27:31;19.88;;;6.95;;
9522;SDS011;63165;43.016;25.784;2023-12-29T14:29:58;18.60;;;6.85;;
